Time;durP1;ratioP1;P1;durP2;ratioP2;P2;SDS_P1;SDS_P2;PMS_P1;PMS_P2;Temp;Humidity;BMP_temperature;BMP_pressure;BME280_temperature;BME280_humidity;BME280_pressure;Samples;Min_cycle;Max_cycle;Signal;HPM_P1;HPM_P2
2022/07/05 00:00:11;;;;;;;4.93;3.97;;;13.70;99.90;;;;;;4875310;29;20203;-63
2022/07/05 00:02:39;;;;;;;6.97;3.50;;;13.60;99.90;;;;;;4872934;29;20196;-63
2022/07/05 00:05:08;;;;;;;5.40;3.80;;;13.60;99.90;;;;;;4876570;29;20251;-63
2022/07/05 00:07:36;;;;;;;4.43;3.50;;;13.60;99.90;;;;;;4873194;29;20226;-62
2022/07/05 00:10:05;;;;;;;4.10;3.80;;;13.60;99.90;;;;;;4877339;29;20290;-62
2022/07/05 00:12:34;;;;;;;4.60;4.30;;;13.50;99.90;;;;;;4876554;29;20206;-62
2022/07/05 00:15:03;;;;;;;6.23;4.10;;;13.50;99.90;;;;;;4880296;29;20213;-63
2022/07/05 00:17:33;;;;;;;4.40;4.00;;;13.40;99.90;;;;;;4871906;29;20675;-62
2022/07/05 00:20:01;;;;;;;4.90;4.40;;;13.40;99.90;;;;;;4872415;29;20206;-62
2022/07/05 00:22:29;;;;;;;4.30;4.00;;;13.40;99.90;;;;;;4871948;29;20202;-62
2022/07/05 00:24:58;;;;;;;4.80;4.30;;;13.30;99.90;;;;;;4880536;29;20218;-62
2022/07/05 00:27:26;;;;;;;4.47;3.80;;;13.30;99.90;;;;;;4875834;29;20297;-62
2022/07/05 00:29:57;;;;;;;4.77;4.30;;;13.30;99.90;;;;;;4869941;29;20214;-62
2022/07/05 00:32:25;;;;;;;5.87;4.43;;;13.30;99.90;;;;;;4869248;29;20254;-62
2022/07/05 00:34:55;;;;;;;5.43;4.30;;;13.30;99.90;;;;;;4872556;29;20220;-62
2022/07/05 00:37:24;;;;;;;4.70;4.30;;;13.20;99.90;;;;;;4871892;29;20302;-62
2022/07/05 00:39:52;;;;;;;4.43;4.00;;;13.20;99.90;;;;;;4872066;29;20203;-62
2022/07/05 00:42:20;;;;;;;5.00;4.30;;;13.20;99.90;;;;;;4870863;29;20286;-63
2022/07/05 00:44:49;;;;;;;4.30;3.93;;;13.20;99.90;;;;;;4872423;29;22399;-62
2022/07/05 00:47:17;;;;;;;4.50;4.10;;;13.10;99.90;;;;;;4872125;29;20207;-62
2022/07/05 00:49:46;;;;;;;6.37;4.30;;;13.10;99.90;;;;;;4880305;29;20219;-62
2022/07/05 00:52:16;;;;;;;4.63;4.00;;;13.10;99.90;;;;;;4858927;29;20199;-62
2022/07/05 00:54:47;;;;;;;4.40;4.10;;;13.10;99.90;;;;;;4866019;29;20204;-62
2022/07/05 00:57:17;;;;;;;4.40;4.00;;;13.00;99.90;;;;;;4855134;29;20211;-62
2022/07/05 00:59:45;;;;;;;6.07;4.23;;;13.00;99.90;;;;;;4874004;29;20211;-62
2022/07/05 01:02:13;;;;;;;4.40;3.97;;;12.90;99.90;;;;;;4870413;29;20234;-63
2022/07/05 01:04:49;;;;;;;5.00;4.50;;;12.90;99.90;;;;;;4880025;29;20206;-62
2022/07/05 01:07:20;;;;;;;4.67;4.27;;;12.90;99.90;;;;;;4874582;29;20667;-63
2022/07/05 01:09:48;;;;;;;4.60;4.20;;;12.90;99.90;;;;;;4871104;29;20222;-62
2022/07/05 01:12:17;;;;;;;7.23;4.07;;;12.80;99.90;;;;;;4872481;29;20210;-62
2022/07/05 01:14:46;;;;;;;4.37;3.90;;;12.80;99.90;;;;;;4872635;29;20970;-61
2022/07/05 01:17:16;;;;;;;6.97;4.60;;;12.80;99.90;;;;;;4873792;29;20199;-62
2022/07/05 01:19:44;;;;;;;5.03;4.47;;;12.80;99.90;;;;;;4878263;29;20614;-62
2022/07/05 01:22:18;;;;;;;5.30;4.83;;;12.80;99.90;;;;;;4869204;29;20476;-62
2022/07/05 01:24:51;;;;;;;5.23;4.67;;;12.80;99.90;;;;;;4878038;29;20278;-62
2022/07/05 01:27:20;;;;;;;5.73;4.23;;;12.80;99.90;;;;;;4873109;29;20290;-62
2022/07/05 01:29:48;;;;;;;5.03;4.53;;;12.80;99.90;;;;;;4871399;29;20225;-62
2022/07/05 01:32:17;;;;;;;6.30;4.80;;;12.80;99.90;;;;;;4872645;29;20309;-62
2022/07/05 01:34:46;;;;;;;10.83;5.00;;;12.80;99.90;;;;;;4856059;29;20211;-62
2022/07/05 01:37:15;;;;;;;6.67;4.67;;;12.70;99.90;;;;;;4870721;29;20214;-63
2022/07/05 01:39:44;;;;;;;4.83;4.27;;;12.70;99.90;;;;;;4872269;29;20631;-62
2022/07/05 01:42:14;;;;;;;5.20;4.47;;;12.70;99.90;;;;;;4874007;29;20215;-62
2022/07/05 01:44:42;;;;;;;5.23;4.80;;;12.70;99.90;;;;;;4872438;29;20195;-62
2022/07/05 01:47:12;;;;;;;9.77;4.43;;;12.70;99.90;;;;;;4869469;29;20230;-62
2022/07/05 01:49:44;;;;;;;6.23;4.77;;;12.70;99.90;;;;;;4868904;29;20290;-62
2022/07/05 01:52:13;;;;;;;4.70;4.30;;;12.60;99.90;;;;;;4873568;29;20323;-62
2022/07/05 01:54:43;;;;;;;6.77;4.57;;;12.60;99.90;;;;;;4869117;29;20203;-62
2022/07/05 01:57:12;;;;;;;13.27;5.30;;;12.50;99.90;;;;;;4871974;29;20274;-63
2022/07/05 01:59:41;;;;;;;7.53;4.70;;;12.50;99.90;;;;;;4866745;29;20190;-62
2022/07/05 02:02:09;;;;;;;5.57;5.03;;;12.50;99.90;;;;;;4867422;29;20774;-62
2022/07/05 02:04:38;;;;;;;5.57;5.10;;;12.50;99.90;;;;;;4871034;29;20198;-62
2022/07/05 02:07:08;;;;;;;4.90;4.47;;;12.50;99.90;;;;;;4867822;29;20214;-62
2022/07/05 02:09:37;;;;;;;7.50;5.03;;;12.50;99.90;;;;;;4855376;29;20290;-62
2022/07/05 02:12:06;;;;;;;5.67;5.00;;;12.50;99.90;;;;;;4868941;29;20672;-62
2022/07/05 02:14:35;;;;;;;9.17;5.30;;;12.40;99.90;;;;;;4871119;29;20199;-65
2022/07/05 02:17:04;;;;;;;8.17;4.80;;;12.40;99.90;;;;;;4865165;29;20684;-62
2022/07/05 02:19:33;;;;;;;5.77;5.30;;;12.40;99.90;;;;;;4871738;29;20183;-62
2022/07/05 02:22:01;;;;;;;5.93;5.37;;;12.40;99.90;;;;;;4868730;29;20227;-62
2022/07/05 02:24:30;;;;;;;9.17;5.50;;;12.40;99.90;;;;;;4875499;29;20203;-62
2022/07/05 02:26:59;;;;;;;5.53;5.03;;;12.40;99.90;;;;;;4868351;29;20298;-62
2022/07/05 02:29:27;;;;;;;7.47;5.63;;;12.30;99.90;;;;;;4878413;29;20301;-62
2022/07/05 02:31:55;;;;;;;6.87;5.57;;;12.30;99.90;;;;;;4882835;29;20324;-62
2022/07/05 02:34:25;;;;;;;5.87;5.37;;;12.30;99.90;;;;;;4876906;29;20207;-61
2022/07/05 02:36:54;;;;;;;7.60;5.87;;;12.30;99.90;;;;;;4873533;29;20291;-62
2022/07/05 02:39:22;;;;;;;6.13;5.57;;;12.30;99.90;;;;;;4871154;29;20703;-62
2022/07/05 02:41:51;;;;;;;7.47;5.70;;;12.30;99.90;;;;;;4867953;29;20207;-62
2022/07/05 02:44:19;;;;;;;10.00;6.07;;;12.30;99.90;;;;;;4869332;29;20207;-62
2022/07/05 02:46:47;;;;;;;6.30;5.80;;;12.30;99.90;;;;;;4879274;29;20203;-62
2022/07/05 02:49:16;;;;;;;6.47;5.80;;;12.30;99.90;;;;;;4878810;29;20223;-62
2022/07/05 02:51:45;;;;;;;8.20;5.67;;;12.30;99.90;;;;;;4889858;29;20198;-62
2022/07/05 02:54:14;;;;;;;6.53;5.67;;;12.30;99.90;;;;;;4880598;29;20270;-62
2022/07/05 02:56:42;;;;;;;8.57;6.10;;;12.30;99.90;;;;;;4881533;29;20213;-62
2022/07/05 02:59:10;;;;;;;5.97;5.47;;;12.30;99.90;;;;;;4876396;29;20195;-62
2022/07/05 03:01:39;;;;;;;7.80;5.80;;;12.30;99.90;;;;;;4877643;29;20570;-62
2022/07/05 03:04:09;;;;;;;5.70;5.27;;;12.30;99.90;;;;;;4876092;29;20213;-61
2022/07/05 03:06:38;;;;;;;5.50;5.10;;;12.20;99.90;;;;;;4872418;29;20233;-62
2022/07/05 03:09:08;;;;;;;8.20;5.80;;;12.20;99.90;;;;;;4874304;29;20211;-62
2022/07/05 03:11:36;;;;;;;9.07;6.17;;;12.20;99.90;;;;;;4871820;29;20230;-62
2022/07/05 03:14:04;;;;;;;8.57;5.67;;;12.20;99.90;;;;;;4874313;29;20365;-62
2022/07/05 03:16:33;;;;;;;8.33;5.30;;;12.20;99.90;;;;;;4868963;29;20279;-62
2022/07/05 03:19:01;;;;;;;10.27;5.80;;;12.10;99.90;;;;;;4871813;29;20199;-62
2022/07/05 03:21:29;;;;;;;8.20;5.60;;;12.10;99.90;;;;;;4871894;29;20713;-62
2022/07/05 03:23:58;;;;;;;12.93;6.70;;;12.10;99.90;;;;;;4874281;29;20259;-62
2022/07/05 03:26:28;;;;;;;6.90;5.60;;;12.10;99.90;;;;;;4887798;29;20230;-62
2022/07/05 03:28:56;;;;;;;10.83;5.93;;;12.10;99.90;;;;;;4873736;29;20593;-61
2022/07/05 03:31:25;;;;;;;6.03;5.43;;;12.10;99.90;;;;;;4878043;29;20706;-62
2022/07/05 03:33:53;;;;;;;8.33;5.47;;;12.10;99.90;;;;;;4869781;29;20212;-62
2022/07/05 03:36:21;;;;;;;9.50;5.27;;;12.00;99.90;;;;;;4873288;29;20199;-62
2022/07/05 03:38:50;;;;;;;9.27;5.57;;;12.00;99.90;;;;;;4871219;29;20229;-62
2022/07/05 03:41:18;;;;;;;7.73;5.30;;;12.00;99.90;;;;;;4875477;29;20282;-62
2022/07/05 03:43:48;;;;;;;7.77;5.40;;;12.00;99.90;;;;;;4881014;29;20203;-62
2022/07/05 03:46:16;;;;;;;5.03;4.60;;;12.00;99.90;;;;;;4861993;29;20590;-62
2022/07/05 03:48:45;;;;;;;5.77;5.20;;;11.90;99.90;;;;;;4874501;29;20721;-62
2022/07/05 03:51:13;;;;;;;5.63;4.87;;;12.00;99.90;;;;;;4875326;29;20298;-62
2022/07/05 03:53:47;;;;;;;5.97;5.37;;;11.90;99.90;;;;;;4881603;29;20210;-62
2022/07/05 03:56:19;;;;;;;5.60;5.10;;;11.90;99.90;;;;;;4871685;29;20226;-62
2022/07/05 03:58:50;;;;;;;6.97;5.40;;;11.80;99.90;;;;;;4868967;29;20207;-62
2022/07/05 04:01:18;;;;;;;7.03;5.70;;;11.90;99.90;;;;;;4874304;29;20290;-62
2022/07/05 04:04:24;;;;;;;8.67;5.03;;;11.90;99.90;;;;;;4870132;29;20615;-62
2022/07/05 04:07:30;;;;;;;9.33;5.33;;;11.90;99.90;;;;;;4873379;29;20705;-62
2022/07/05 04:09:59;;;;;;;6.53;5.00;;;11.90;99.90;;;;;;4890125;29;20297;-62
2022/07/05 04:12:27;;;;;;;10.20;5.30;;;11.90;99.90;;;;;;4876454;29;20841;-63
2022/07/05 04:14:57;;;;;;;9.73;6.07;;;11.90;99.90;;;;;;4871089;29;20202;-62
2022/07/05 04:17:26;;;;;;;6.87;5.23;;;11.90;99.90;;;;;;4871747;29;20203;-62
2022/07/05 04:19:54;;;;;;;12.43;6.13;;;11.90;99.90;;;;;;4871561;29;20195;-62
2022/07/05 04:22:22;;;;;;;9.07;5.57;;;11.90;99.90;;;;;;4868944;29;20668;-62
2022/07/05 04:27:36;;;;;;;6.50;5.83;;;12.00;99.90;;;;;;4868835;29;20199;-62
2022/07/05 04:30:07;;;;;;;5.83;5.33;;;12.10;99.90;;;;;;4872314;29;20258;-62
2022/07/05 04:32:35;;;;;;;9.97;5.73;;;12.20;99.90;;;;;;4871083;29;20218;-62
2022/07/05 04:35:04;;;;;;;7.17;5.70;;;12.20;99.90;;;;;;4874335;29;20209;-62
2022/07/05 04:37:33;;;;;;;7.27;5.70;;;12.30;99.90;;;;;;4870908;29;20207;-61
2022/07/05 04:40:01;;;;;;;6.13;5.53;;;12.40;99.90;;;;;;4872336;29;20563;-62
2022/07/05 04:42:30;;;;;;;7.00;5.10;;;12.50;99.90;;;;;;4876831;29;20290;-62
2022/07/05 04:44:58;;;;;;;6.10;5.30;;;12.60;99.90;;;;;;4872909;29;20214;-62
2022/07/05 04:47:28;;;;;;;10.47;5.53;;;12.80;99.90;;;;;;4871793;29;20277;-62
2022/07/05 04:49:57;;;;;;;8.63;5.20;;;12.90;99.90;;;;;;4872727;29;20634;-62
2022/07/05 04:52:26;;;;;;;6.10;5.27;;;13.10;99.90;;;;;;4872603;29;20206;-62
2022/07/05 04:54:54;;;;;;;9.33;5.07;;;13.20;99.90;;;;;;4872212;29;20234;-62
2022/07/05 04:57:23;;;;;;;7.93;4.90;;;13.30;99.90;;;;;;4873444;29;20722;-63
2022/07/05 04:59:51;;;;;;;5.37;4.87;;;13.40;99.90;;;;;;4870436;29;20195;-62
2022/07/05 05:02:20;;;;;;;5.97;5.07;;;13.40;99.90;;;;;;4871430;29;20230;-62
2022/07/05 05:04:49;;;;;;;6.60;5.00;;;13.40;99.90;;;;;;4875443;29;20215;-62
2022/07/05 05:07:18;;;;;;;8.87;4.87;;;13.50;99.90;;;;;;4871265;29;20230;-62
2022/07/05 05:09:46;;;;;;;10.80;5.00;;;13.70;99.90;;;;;;4872744;29;20198;-63
2022/07/05 05:12:15;;;;;;;6.60;4.77;;;13.90;99.90;;;;;;4871120;29;20223;-63
2022/07/05 05:14:43;;;;;;;7.70;4.63;;;14.10;99.90;;;;;;4873307;29;20338;-62
2022/07/05 05:17:11;;;;;;;9.33;5.13;;;14.20;99.90;;;;;;4871075;29;20566;-62
2022/07/05 05:19:40;;;;;;;7.37;4.80;;;14.20;99.90;;;;;;4873206;29;20230;-62
2022/07/05 05:22:10;;;;;;;6.67;5.40;;;14.20;99.90;;;;;;4870728;29;20659;-62
2022/07/05 05:24:38;;;;;;;5.03;4.53;;;14.20;99.90;;;;;;4869477;29;20294;-62
2022/07/05 05:27:06;;;;;;;10.27;5.13;;;14.20;99.90;;;;;;4870241;29;20207;-62
2022/07/05 05:29:35;;;;;;;8.87;4.57;;;14.20;99.90;;;;;;4874415;29;20207;-62
2022/07/05 05:32:03;;;;;;;11.73;5.77;;;14.30;99.90;;;;;;4868534;29;20233;-63
2022/07/05 05:34:31;;;;;;;10.73;5.27;;;14.50;99.90;;;;;;4876908;29;20209;-62
2022/07/05 05:37:00;;;;;;;15.40;5.07;;;14.80;99.90;;;;;;4866675;29;20286;-63
2022/07/05 05:39:29;;;;;;;10.67;4.53;;;14.90;99.90;;;;;;4874632;29;20725;-62
2022/07/05 05:41:58;;;;;;;5.83;4.33;;;15.00;99.90;;;;;;4872648;29;20208;-63
2022/07/05 05:44:26;;;;;;;7.17;4.63;;;15.00;99.90;;;;;;4874771;29;20286;-62
2022/07/05 05:46:54;;;;;;;6.87;4.30;;;15.20;99.90;;;;;;4869701;29;20203;-63
2022/07/05 05:49:23;;;;;;;8.30;4.50;;;15.50;99.90;;;;;;4877146;29;20289;-63
2022/07/05 05:51:51;;;;;;;7.37;4.10;;;15.80;99.90;;;;;;4871825;29;20304;-63
2022/07/05 05:54:20;;;;;;;9.23;4.17;;;16.10;99.90;;;;;;4869650;29;20573;-63
2022/07/05 05:56:49;;;;;;;9.37;4.53;;;16.30;99.90;;;;;;4873280;29;20975;-63
2022/07/05 05:59:18;;;;;;;11.90;4.47;;;16.50;99.90;;;;;;4876362;29;20199;-63
2022/07/05 06:01:46;;;;;;;6.87;4.23;;;16.80;99.90;;;;;;4875371;29;20226;-63
2022/07/05 06:04:15;;;;;;;7.13;4.27;;;17.10;99.90;;;;;;4875205;29;20817;-63
2022/07/05 06:06:43;;;;;;;7.40;3.83;;;17.20;99.90;;;;;;4873160;29;20201;-63
2022/07/05 06:09:11;;;;;;;10.30;4.07;;;17.50;99.90;;;;;;4867277;29;20199;-63
2022/07/05 06:11:39;;;;;;;8.00;3.80;;;17.70;99.90;;;;;;4872113;29;20613;-63
2022/07/05 06:14:12;;;;;;;8.40;4.03;;;18.00;99.90;;;;;;4867939;29;20195;-63
2022/07/05 06:16:40;;;;;;;6.67;4.10;;;18.20;99.90;;;;;;4872823;29;20243;-63
2022/07/05 06:19:09;;;;;;;8.20;3.73;;;18.40;99.90;;;;;;4870928;29;20618;-63
2022/07/05 06:21:37;;;;;;;8.10;4.50;;;18.60;99.90;;;;;;4878253;29;20457;-64
2022/07/05 06:24:06;;;;;;;6.03;3.50;;;18.80;99.90;;;;;;4874250;29;20199;-64
2022/07/05 06:26:34;;;;;;;15.73;4.10;;;19.10;99.90;;;;;;4873623;29;20689;-63
2022/07/05 06:29:02;;;;;;;8.93;3.93;;;19.40;99.90;;;;;;4870290;29;20231;-64
2022/07/05 06:31:32;;;;;;;12.43;3.77;;;19.50;99.90;;;;;;4870867;29;20707;-63
2022/07/05 06:34:00;;;;;;;17.63;4.10;;;19.40;99.90;;;;;;4873121;29;20630;-64
2022/07/05 06:36:29;;;;;;;6.33;3.40;;;19.80;99.90;;;;;;4873205;29;20203;-64
2022/07/05 06:38:57;;;;;;;10.17;4.07;;;20.30;99.90;;;;;;4872631;29;20851;-64
2022/07/05 06:41:25;;;;;;;12.53;4.17;;;20.60;99.90;;;;;;4877293;29;20284;-64
2022/07/05 06:43:53;;;;;;;7.00;3.83;;;20.70;99.90;;;;;;4873596;29;20267;-64
2022/07/05 06:46:41;;;;;;;10.30;3.60;;;20.70;99.90;;;;;;4872908;29;20280;-64
2022/07/05 06:49:09;;;;;;;8.60;4.33;;;20.90;99.90;;;;;;4875791;29;20213;-65
2022/07/05 06:51:38;;;;;;;8.90;3.70;;;21.30;99.90;;;;;;4858065;29;20215;-64
2022/07/05 06:54:06;;;;;;;7.97;3.87;;;21.80;99.90;;;;;;4881704;29;20195;-64
2022/07/05 06:56:55;;;;;;;8.80;4.20;;;21.70;99.90;;;;;;4874768;29;20210;-64
2022/07/05 06:59:43;;;;;;;9.07;3.57;;;21.90;99.90;;;;;;4875909;29;20667;-64
2022/07/05 07:02:29;;;;;;;5.57;3.40;;;22.70;99.90;;;;;;4878997;29;20355;-64
2022/07/05 07:04:58;;;;;;;10.07;3.80;;;22.70;99.90;;;;;;4878918;29;20207;-64
2022/07/05 07:10:29;;;;;;;6.70;3.23;;;21.70;99.90;;;;;;4874545;29;20221;-64
2022/07/05 07:12:58;;;;;;;9.00;3.60;;;21.30;99.90;;;;;;4875982;29;20223;-64
2022/07/05 07:15:27;;;;;;;10.43;3.17;;;21.40;99.90;;;;;;4873537;29;20303;-64
2022/07/05 07:17:57;;;;;;;6.10;3.50;;;21.60;99.90;;;;;;4878262;29;20287;-63
2022/07/05 07:20:25;;;;;;;10.80;3.30;;;21.40;99.90;;;;;;4886904;29;20323;-63
2022/07/05 07:22:54;;;;;;;6.60;3.10;;;21.40;99.90;;;;;;4870374;29;20211;-63
2022/07/05 07:25:23;;;;;;;6.90;3.33;;;21.60;99.90;;;;;;4878018;29;20588;-63
2022/07/05 07:27:54;;;;;;;8.30;2.90;;;21.60;99.90;;;;;;4875891;29;20254;-64
2022/07/05 07:30:24;;;;;;;7.83;3.03;;;21.50;99.90;;;;;;4874410;29;20232;-64
2022/07/05 07:32:53;;;;;;;10.73;3.43;;;21.90;99.90;;;;;;4871584;29;20244;-63
2022/07/05 07:35:23;;;;;;;9.80;3.20;;;22.30;99.90;;;;;;4877382;29;20672;-63
2022/07/05 07:37:51;;;;;;;7.30;3.37;;;22.30;99.90;;;;;;4885620;29;20548;-64
2022/07/05 07:40:19;;;;;;;5.67;3.13;;;22.40;99.90;;;;;;4878719;29;20214;-63
2022/07/05 07:42:47;;;;;;;7.33;3.20;;;22.70;99.90;;;;;;4869561;29;20232;-63
2022/07/05 07:45:16;;;;;;;5.03;3.13;;;22.70;99.90;;;;;;4867818;29;20208;-63
2022/07/05 07:47:44;;;;;;;9.07;3.13;;;22.20;99.90;;;;;;4874074;29;20288;-63
2022/07/05 07:50:13;;;;;;;8.80;3.53;;;21.90;99.90;;;;;;4873032;29;20609;-64
2022/07/05 07:52:42;;;;;;;4.70;2.77;;;21.70;99.90;;;;;;4879505;29;20250;-63
2022/07/05 07:55:10;;;;;;;11.23;3.07;;;22.40;99.90;;;;;;4871041;29;20546;-64
2022/07/05 07:57:39;;;;;;;7.00;3.27;;;22.70;99.90;;;;;;4872915;29;20237;-64
2022/07/05 08:00:08;;;;;;;11.40;2.40;;;23.20;99.90;;;;;;4874380;29;20199;-64
2022/07/05 08:02:36;;;;;;;7.65;2.70;;;24.10;99.90;;;;;;4878378;29;20204;-64
2022/07/05 08:05:08;;;;;;;8.90;2.88;;;25.60;99.90;;;;;;4860473;29;20548;-64
2022/07/05 08:07:37;;;;;;;6.78;2.90;;;25.80;99.90;;;;;;4874109;29;20196;-64
2022/07/05 08:10:08;;;;;;;9.35;3.10;;;26.40;99.90;;;;;;4872923;29;20855;-64
2022/07/05 08:12:37;;;;;;;6.65;2.10;;;25.70;99.90;;;;;;4885077;29;20228;-64
2022/07/05 08:15:07;;;;;;;4.70;2.30;;;25.30;99.90;;;;;;4864604;29;20288;-64
2022/07/05 08:17:36;;;;;;;7.00;2.20;;;25.50;99.90;;;;;;4868045;29;20208;-64
2022/07/05 08:22:50;;;;;;;5.90;2.40;;;25.10;99.90;;;;;;4875583;29;20663;-64
2022/07/05 08:25:20;;;;;;;7.35;2.40;;;24.50;99.90;;;;;;4862505;29;20196;-63
2022/07/05 08:27:48;;;;;;;5.38;2.42;;;24.40;99.90;;;;;;4875341;29;20215;-63
2022/07/05 08:30:17;;;;;;;9.80;2.35;;;24.50;99.90;;;;;;4877938;29;20736;-64
2022/07/05 08:32:45;;;;;;;5.20;2.30;;;25.40;99.90;;;;;;4871582;29;20300;-64
2022/07/05 08:35:14;;;;;;;6.25;2.33;;;26.20;99.90;;;;;;4869609;29;20237;-64
2022/07/05 08:37:42;;;;;;;4.57;2.50;;;26.20;99.90;;;;;;4868834;29;20197;-64
2022/07/05 08:40:11;;;;;;;5.50;2.45;;;26.40;99.90;;;;;;4873468;29;20214;-64
2022/07/05 08:42:41;;;;;;;8.93;2.40;;;27.20;99.90;;;;;;4880963;29;20191;-64
2022/07/05 08:45:13;;;;;;;7.85;2.47;;;27.70;99.90;;;;;;4878374;29;20195;-65
2022/07/05 08:47:42;;;;;;;4.32;1.92;;;28.30;99.90;;;;;;4873338;29;20247;-64
2022/07/05 08:50:14;;;;;;;5.00;2.20;;;28.50;99.90;;;;;;4872469;29;20215;-64
2022/07/05 08:52:44;;;;;;;7.85;2.13;;;27.50;99.90;;;;;;4872124;29;20225;-64
2022/07/05 08:55:13;;;;;;;6.05;2.28;;;26.40;99.90;;;;;;4870755;29;20207;-64
2022/07/05 08:57:43;;;;;;;3.55;1.90;;;26.70;99.90;;;;;;4871573;29;20231;-64
2022/07/05 09:00:13;;;;;;;3.15;1.95;;;27.70;99.90;;;;;;4867796;29;20560;-64
2022/07/05 09:02:41;;;;;;;5.57;2.03;;;27.90;99.90;;;;;;4883310;29;20294;-64
2022/07/05 09:05:14;;;;;;;4.05;2.00;;;27.40;99.90;;;;;;4869288;29;20199;-64
2022/07/05 09:07:51;;;;;;;2.92;1.40;;;27.60;99.90;;;;;;4859267;29;20207;-64
2022/07/05 09:10:22;;;;;;;5.82;2.17;;;28.50;99.90;;;;;;4869913;29;20212;-65
2022/07/05 09:12:52;;;;;;;3.28;1.80;;;28.50;99.90;;;;;;4871871;29;20229;-65
2022/07/05 09:15:20;;;;;;;3.75;1.42;;;29.30;99.90;;;;;;4876382;29;20237;-65
2022/07/05 09:17:49;;;;;;;3.38;1.80;;;29.80;99.90;;;;;;4876451;29;20246;-65
2022/07/05 09:20:18;;;;;;;3.00;1.80;;;30.60;99.90;;;;;;4872558;29;20235;-63
2022/07/05 09:22:49;;;;;;;5.88;1.48;;;30.20;99.90;;;;;;4871305;29;20207;-63
2022/07/05 09:25:19;;;;;;;4.35;2.10;;;28.90;99.90;;;;;;4873636;29;20193;-62
2022/07/05 09:27:54;;;;;;;1.77;1.60;;;27.70;99.90;;;;;;4875781;29;20225;-62
2022/07/05 09:30:28;;;;;;;2.55;1.63;;;26.50;99.90;;;;;;4872163;29;20256;-64
2022/07/05 09:33:07;;;;;;;5.22;1.70;;;25.60;99.90;;;;;;4867884;29;20630;-64
2022/07/05 09:35:37;;;;;;;3.42;1.90;;;24.90;99.90;;;;;;4874146;29;20202;-64
2022/07/05 09:38:06;;;;;;;3.00;1.75;;;24.90;99.90;;;;;;4875775;29;20202;-65
2022/07/05 09:40:48;;;;;;;4.97;2.05;;;26.00;99.90;;;;;;4871836;29;20208;-63
2022/07/05 09:43:19;;;;;;;3.10;1.88;;;27.70;99.90;;;;;;4889950;29;20286;-63
2022/07/05 09:46:00;;;;;;;5.97;2.28;;;28.70;99.90;;;;;;4872906;29;20206;-63
2022/07/05 09:48:30;;;;;;;3.47;1.77;;;29.50;99.90;;;;;;4872019;29;20211;-64
2022/07/05 09:51:10;;;;;;;1.92;1.50;;;29.80;99.90;;;;;;4869533;29;20223;-63
2022/07/05 09:54:00;;;;;;;1.60;1.50;;;29.90;99.90;;;;;;4875099;29;20222;-63
2022/07/05 09:56:44;;;;;;;2.13;1.40;;;29.80;99.90;;;;;;4869375;29;20204;-64
2022/07/05 09:59:15;;;;;;;1.58;1.10;;;30.30;99.90;;;;;;4868512;29;20330;-63
2022/07/05 10:01:44;;;;;;;3.67;1.70;;;30.60;99.90;;;;;;4865815;29;20665;-63
2022/07/05 10:04:13;;;;;;;2.65;1.58;;;31.30;99.90;;;;;;4860303;29;20271;-63
2022/07/05 10:06:42;;;;;;;2.50;1.63;;;31.70;99.90;;;;;;4869918;29;20216;-64
2022/07/05 10:09:14;;;;;;;1.58;1.40;;;31.70;99.80;;;;;;4869344;29;20198;-64
2022/07/05 10:11:43;;;;;;;3.55;1.83;;;31.90;99.80;;;;;;4871577;29;20550;-63
2022/07/05 10:14:15;;;;;;;3.97;1.50;;;32.00;99.30;;;;;;4868673;29;20218;-64
2022/07/05 10:16:48;;;;;;;1.73;1.55;;;31.80;98.80;;;;;;4871424;29;20236;-64
2022/07/05 10:19:20;;;;;;;4.75;1.60;;;31.80;98.50;;;;;;4874088;29;20683;-64
2022/07/05 10:21:50;;;;;;;1.60;1.50;;;32.10;99.00;;;;;;4873490;29;20243;-63
2022/07/05 10:24:43;;;;;;;1.85;1.75;;;31.80;98.30;;;;;;4870093;29;20235;-63
2022/07/05 10:27:14;;;;;;;2.85;1.83;;;30.30;98.70;;;;;;4873401;29;20637;-64
2022/07/05 10:29:46;;;;;;;2.45;1.52;;;30.10;99.90;;;;;;4866896;29;20206;-63
2022/07/05 10:32:17;;;;;;;4.47;1.80;;;29.70;99.10;;;;;;4871645;29;20844;-65
2022/07/05 10:34:47;;;;;;;3.78;1.50;;;28.50;99.60;;;;;;4870190;29;20199;-64
2022/07/05 10:37:27;;;;;;;1.73;1.63;;;27.50;99.90;;;;;;4875122;29;20618;-65
2022/07/05 10:39:58;;;;;;;4.22;2.00;;;26.40;99.90;;;;;;4871936;29;20261;-65
2022/07/05 10:42:30;;;;;;;6.10;2.00;;;25.90;99.90;;;;;;4870508;29;20267;-64
2022/07/05 10:45:02;;;;;;;6.43;2.33;;;25.50;99.90;;;;;;4867108;29;20271;-64
2022/07/05 10:47:32;;;;;;;2.83;2.20;;;25.00;99.90;;;;;;4865821;29;20211;-64
2022/07/05 10:50:03;;;;;;;4.13;2.80;;;24.80;99.90;;;;;;4871712;29;20207;-64
2022/07/05 10:52:32;;;;;;;4.13;2.87;;;24.50;99.90;;;;;;4875978;29;20293;-64
2022/07/05 10:55:22;;;;;;;6.47;2.60;;;24.50;99.90;;;;;;4867003;29;20271;-64
2022/07/05 10:58:20;;;;;;;4.80;3.10;;;24.40;99.90;;;;;;4868280;29;20263;-64
2022/07/05 11:01:28;;;;;;;7.23;2.70;;;24.40;99.90;;;;;;4869783;29;20927;-64
2022/07/05 11:04:23;;;;;;;4.30;2.90;;;24.40;99.90;;;;;;4867981;29;20222;-64
2022/07/05 11:06:51;;;;;;;4.63;3.00;;;24.30;99.90;;;;;;4875764;29;20222;-64
2022/07/05 11:09:21;;;;;;;5.07;3.20;;;24.80;99.90;;;;;;4874986;29;20661;-64
2022/07/05 11:12:07;;;;;;;5.40;3.03;;;24.80;99.90;;;;;;4872618;29;20220;-63
2022/07/05 11:15:07;;;;;;;4.20;3.10;;;24.90;99.90;;;;;;4882939;29;20195;-63
2022/07/05 11:17:36;;;;;;;3.13;2.93;;;25.60;99.90;;;;;;4870497;29;20191;-63
2022/07/05 11:20:32;;;;;;;5.97;3.03;;;26.20;99.90;;;;;;4881462;29;20236;-64
2022/07/05 11:23:12;;;;;;;4.70;2.80;;;26.90;99.90;;;;;;4869178;29;20202;-63
2022/07/05 11:25:44;;;;;;;5.35;2.65;;;27.60;99.90;;;;;;4873426;29;20247;-64
2022/07/05 11:28:17;;;;;;;4.47;2.10;;;28.10;99.90;;;;;;4867852;29;20726;-64
2022/07/05 11:30:47;;;;;;;4.25;1.70;;;28.40;99.90;;;;;;4875739;29;20572;-64
2022/07/05 11:33:30;;;;;;;3.92;1.40;;;28.80;99.90;;;;;;4875273;29;20229;-64
2022/07/05 11:36:00;;;;;;;3.40;1.77;;;28.90;99.90;;;;;;4877739;29;20813;-64
2022/07/05 11:38:30;;;;;;;3.92;1.70;;;28.10;99.90;;;;;;4876035;29;20220;-64
2022/07/05 11:41:18;;;;;;;3.30;1.60;;;27.30;99.90;;;;;;4869838;29;20244;-63
2022/07/05 11:43:57;;;;;;;3.28;1.63;;;26.80;99.90;;;;;;4890761;29;20200;-63
2022/07/05 11:46:25;;;;;;;2.83;1.67;;;26.40;99.90;;;;;;4873285;29;20207;-63
2022/07/05 11:49:20;;;;;;;2.00;1.73;;;25.90;99.90;;;;;;4865735;29;20234;-63
2022/07/05 11:51:59;;;;;;;4.90;1.70;;;25.50;99.90;;;;;;4883209;29;20540;-63
2022/07/05 11:54:30;;;;;;;4.23;1.97;;;25.10;99.90;;;;;;4870057;29;20536;-63
2022/07/05 11:57:00;;;;;;;1.93;1.73;;;24.60;99.90;;;;;;4872921;29;20904;-63
2022/07/05 11:59:29;;;;;;;2.93;1.70;;;24.50;99.90;;;;;;4874101;29;20213;-63
2022/07/05 12:01:57;;;;;;;1.97;1.40;;;25.00;99.90;;;;;;4877406;29;20229;-63
2022/07/05 12:04:28;;;;;;;2.77;1.83;;;25.80;99.90;;;;;;4867101;29;20642;-64
2022/07/05 12:06:57;;;;;;;3.67;1.50;;;25.90;99.90;;;;;;4871963;29;20833;-63
2022/07/05 12:12:42;;;;;;;3.27;1.67;;;26.00;99.90;;;;;;4875165;29;20663;-63
2022/07/05 12:15:05;;;;;;;2.30;1.60;;;25.20;99.90;;;;;;4873389;29;20206;-63
2022/07/05 12:17:35;;;;;;;5.00;2.00;;;24.90;99.90;;;;;;4876087;29;20667;-63
2022/07/05 12:20:06;;;;;;;2.03;1.50;;;24.90;99.90;;;;;;4877137;29;20736;-63
2022/07/05 12:22:36;;;;;;;3.27;1.53;;;25.00;99.90;;;;;;4873232;29;20596;-63
2022/07/05 12:25:07;;;;;;;1.90;1.30;;;25.10;99.90;;;;;;4877616;29;20325;-63
2022/07/05 12:27:38;;;;;;;1.87;1.33;;;25.20;99.90;;;;;;4879543;29;20229;-63
2022/07/05 12:30:11;;;;;;;3.23;1.57;;;25.40;99.90;;;;;;4875161;29;20285;-63
2022/07/05 12:32:56;;;;;;;1.50;1.40;;;25.80;99.90;;;;;;4878398;29;20222;-63
2022/07/05 12:35:35;;;;;;;2.83;1.80;;;25.90;99.90;;;;;;4875826;29;20208;-63
2022/07/05 12:38:09;;;;;;;5.30;1.77;;;25.70;99.90;;;;;;4873722;29;20222;-63
2022/07/05 12:40:39;;;;;;;1.87;1.50;;;25.60;99.90;;;;;;4867219;29;20203;-63
2022/07/05 12:43:09;;;;;;;3.37;1.60;;;25.90;99.90;;;;;;4868836;29;20207;-63
2022/07/05 12:45:38;;;;;;;5.50;1.53;;;26.00;99.90;;;;;;4877854;29;20738;-63
2022/07/05 12:48:08;;;;;;;1.63;1.47;;;26.20;99.90;;;;;;4868603;29;20219;-63
2022/07/05 12:50:49;;;;;;;2.43;1.50;;;26.60;99.90;;;;;;4879442;29;20241;-63
2022/07/05 12:59:38;;;;;;;3.13;1.40;;;26.70;99.90;;;;;;4863973;29;20198;-64
2022/07/05 13:02:06;;;;;;;1.73;1.50;;;26.70;99.90;;;;;;4889131;29;20718;-63
2022/07/05 13:04:35;;;;;;;1.50;1.40;;;26.20;99.90;;;;;;4872478;29;21160;-63
2022/07/05 13:07:05;;;;;;;2.57;1.30;;;25.70;99.90;;;;;;4869868;29;20238;-63
2022/07/05 13:09:54;;;;;;;3.80;2.10;;;25.60;99.90;;;;;;4874482;29;20213;-63
2022/07/05 13:12:23;;;;;;;3.43;1.73;;;25.60;99.90;;;;;;4872420;29;20272;-63
2022/07/05 13:14:53;;;;;;;3.23;1.60;;;25.50;99.90;;;;;;4869673;29;22355;-63
2022/07/05 13:17:22;;;;;;;3.03;1.40;;;25.70;99.90;;;;;;4875079;29;20239;-63
2022/07/05 13:19:52;;;;;;;1.73;1.57;;;26.20;99.90;;;;;;4868383;29;20218;-62
2022/07/05 13:22:22;;;;;;;2.50;1.57;;;26.00;99.90;;;;;;4869748;29;20198;-63